Wetterdaten: Mittwoch, 04.03.2015
Datum Zeit Auen-Temp. Temp. -10 cm Luftfeuchte Luftfeuchte Luftdruck Regen Wind Richtung Richtung Taupunkt Windchill Windben
04.03.2015 00:00 3,7 C 1,0 C 58 % 58 % 1022,6 hPa 0,0 l/m 5,8 km/h (2 Bft) S 180 -3,8 C 1,8 C 6,9 km/h (2 Bft)
04.03.2015 00:05 3,7 C 1,0 C 58 % 58 % 1022,6 hPa 0,0 l/m 6,0 km/h (2 Bft) W-SW 247 -3,8 C 1,7 C 6,9 km/h (2 Bft)
04.03.2015 00:10 3,9 C 1,0 C 58 % 58 % 1022,6 hPa 0,0 l/m 5,8 km/h (2 Bft) S 180 -3,6 C 2,1 C 7,1 km/h (2 Bft)
04.03.2015 00:15 3,8 C 1,0 C 58 % 58 % 1022,6 hPa 0,0 l/m 5,0 km/h (1 Bft) W-SW 247 -3,7 C 2,4 C 4,3 km/h (1 Bft)
04.03.2015 00:20 3,4 C 1,0 C 59 % 59 % 1022,6 hPa 0,0 l/m 3,4 km/h (1 Bft) W-SW 247 -3,8 C 2,9 C 4,3 km/h (1 Bft)
04.03.2015 00:25 3,3 C 1,0 C 59 % 59 % 1022,6 hPa 0,0 l/m 2,9 km/h (1 Bft) SW 225 -3,9 C 3,0 C 2,9 km/h (1 Bft)
04.03.2015 00:30 3,5 C 1,0 C 59 % 59 % 1022,6 hPa 0,0 l/m 3,4 km/h (1 Bft) W-SW 247 -3,7 C 2,6 C 3,9 km/h (1 Bft)
04.03.2015 00:35 3,6 C 1,0 C 59 % 59 % 1022,4 hPa 0,0 l/m 3,7 km/h (1 Bft) SW 225 -3,6 C 2,6 C 3,9 km/h (1 Bft)
04.03.2015 00:40 3,4 C 1,0 C 59 % 59 % 1022,4 hPa 0,0 l/m 3,2 km/h (1 Bft) SW 225 -3,8 C 2,7 C 4,3 km/h (1 Bft)
04.03.2015 00:45 3,6 C 1,0 C 59 % 59 % 1022,4 hPa 0,0 l/m 3,4 km/h (1 Bft) SW 225 -3,6 C 2,6 C 3,4 km/h (1 Bft)
04.03.2015 00:50 3,7 C 1,0 C 59 % 59 % 1022,4 hPa 0,0 l/m 4,0 km/h (1 Bft) SW 225 -3,6 C 2,4 C 4,8 km/h (1 Bft)
04.03.2015 00:55 3,9 C 1,0 C 59 % 59 % 1022,4 hPa 0,0 l/m 4,7 km/h (1 Bft) W-SW 247 -3,4 C 2,3 C 8,2 km/h (2 Bft)
04.03.2015 01:00 4,0 C 1,0 C 58 % 58 % 1022,4 hPa 0,0 l/m 5,8 km/h (2 Bft) S-SO 157 -3,5 C 2,1 C 8,0 km/h (2 Bft)
04.03.2015 01:05 4,1 C 1,0 C 58 % 58 % 1022,4 hPa 0,0 l/m 6,3 km/h (2 Bft) S 180 -3,4 C 2,0 C 8,5 km/h (2 Bft)
04.03.2015 01:10 4,0 C 1,0 C 58 % 58 % 1022,4 hPa 0,0 l/m 6,4 km/h (2 Bft) SW 225 -3,5 C 2,1 C 10,8 km/h (2 Bft)
04.03.2015 01:15 4,1 C 1,0 C 57 % 57 % 1022,4 hPa 0,0 l/m 6,4 km/h (2 Bft) S 180 -3,6 C 2,2 C 5,5 km/h (1 Bft)
04.03.2015 01:20 4,1 C 1,0 C 57 % 57 % 1022,4 hPa 0,0 l/m 6,3 km/h (2 Bft) S 180 -3,6 C 2,2 C 7,1 km/h (2 Bft)
04.03.2015 01:25 3,9 C 1,0 C 58 % 58 % 1022,4 hPa 0,0 l/m 5,6 km/h (1 Bft) S 180 -3,6 C 2,4 C 5,5 km/h (1 Bft)
04.03.2015 01:30 3,8 C 1,0 C 58 % 58 % 1022,4 hPa 0,0 l/m 4,7 km/h (1 Bft) SW 225 -3,7 C 2,4 C 5,5 km/h (1 Bft)
04.03.2015 01:35 3,6 C 1,0 C 58 % 58 % 1022,5 hPa 0,0 l/m 4,0 km/h (1 Bft) SW 225 -3,9 C 2,6 C 4,2 km/h (1 Bft)
04.03.2015 01:40 3,6 C 1,0 C 59 % 59 % 1022,5 hPa 0,0 l/m 3,1 km/h (1 Bft) W-SW 247 -3,6 C 2,9 C 6,4 km/h (2 Bft)
04.03.2015 01:45 3,8 C 1,0 C 59 % 59 % 1022,5 hPa 0,0 l/m 4,0 km/h (1 Bft) W-SW 247 -3,5 C 2,4 C 9,7 km/h (2 Bft)
04.03.2015 01:50 3,9 C 1,0 C 59 % 59 % 1022,5 hPa 0,0 l/m 5,8 km/h (2 Bft) SW 225 -3,4 C 1,8 C 13,2 km/h (3 Bft)
04.03.2015 01:55 3,9 C 1,0 C 59 % 59 % 1022,5 hPa 0,0 l/m 6,1 km/h (2 Bft) S-SW 202 -3,4 C 1,7 C 6,4 km/h (2 Bft)
04.03.2015 02:00 3,9 C 1,0 C 59 % 59 % 1022,5 hPa 0,0 l/m 5,6 km/h (1 Bft) S-SW 202 -3,4 C 2,0 C 14,0 km/h (3 Bft)
04.03.2015 02:05 4,0 C 1,0 C 59 % 59 % 1022,5 hPa 0,0 l/m 5,8 km/h (2 Bft) W-SW 247 -3,3 C 1,9 C 6,0 km/h (2 Bft)
04.03.2015 02:10 4,0 C 1,0 C 59 % 59 % 1022,5 hPa 0,0 l/m 6,1 km/h (2 Bft) SW 225 -3,3 C 1,9 C 4,7 km/h (1 Bft)
04.03.2015 02:15 3,9 C 1,0 C 60 % 60 % 1022,3 hPa 0,0 l/m 5,3 km/h (1 Bft) W 270 -3,1 C 2,1 C 10,0 km/h (2 Bft)
04.03.2015 02:20 4,0 C 1,0 C 60 % 60 % 1022,3 hPa 0,0 l/m 6,3 km/h (2 Bft) SW 225 -3,0 C 1,8 C 9,0 km/h (2 Bft)
04.03.2015 02:25 3,9 C 1,0 C 60 % 60 % 1022,3 hPa 0,0 l/m 6,4 km/h (2 Bft) W-SW 247 -3,1 C 1,7 C 3,9 km/h (1 Bft)
04.03.2015 02:30 4,0 C 1,0 C 60 % 60 % 1022,3 hPa 0,0 l/m 6,1 km/h (2 Bft) W 270 -3,0 C 1,8 C 11,7 km/h (2 Bft)
04.03.2015 02:35 4,0 C 1,0 C 60 % 60 % 1022,4 hPa 0,0 l/m 5,8 km/h (2 Bft) SW 225 -3,0 C 2,1 C 4,8 km/h (1 Bft)
04.03.2015 02:40 4,3 C 1,0 C 59 % 59 % 1022,4 hPa 0,0 l/m 7,2 km/h (2 Bft) W-SW 247 -3,0 C 1,0 C 15,0 km/h (3 Bft)
04.03.2015 02:45 4,2 C 1,0 C 59 % 59 % 1022,4 hPa 0,0 l/m 7,1 km/h (2 Bft) W 270 -3,1 C 1,4 C 7,4 km/h (2 Bft)
04.03.2015 02:50 4,1 C 1,0 C 59 % 59 % 1022,4 hPa 0,0 l/m 5,5 km/h (1 Bft) W 270 -3,2 C 2,6 C 9,0 km/h (2 Bft)
04.03.2015 02:55 4,1 C 1,0 C 59 % 59 % 1022,4 hPa 0,0 l/m 5,3 km/h (1 Bft) W-SW 247 -3,2 C 2,6 C 7,6 km/h (2 Bft)
04.03.2015 03:00 4,3 C 1,0 C 59 % 59 % 1022,4 hPa 0,0 l/m 7,1 km/h (2 Bft) NW 315 -3,0 C 1,4 C 10,0 km/h (2 Bft)
04.03.2015 03:05 4,3 C 1,0 C 59 % 59 % 1022,4 hPa 0,0 l/m 7,6 km/h (2 Bft) W-SW 247 -3,0 C 0,9 C 5,0 km/h (1 Bft)
04.03.2015 03:10 4,2 C 1,0 C 59 % 59 % 1022,4 hPa 0,0 l/m 7,1 km/h (2 Bft) W-SW 247 -3,1 C 1,5 C 12,1 km/h (2 Bft)
04.03.2015 03:15 4,2 C 1,0 C 59 % 59 % 1022,2 hPa 0,0 l/m 6,1 km/h (2 Bft) SW 225 -3,1 C 2,5 C 4,0 km/h (1 Bft)
04.03.2015 03:20 4,2 C 1,0 C 59 % 59 % 1022,2 hPa 0,0 l/m 4,7 km/h (1 Bft) W-SW 247 -3,1 C 2,8 C 3,1 km/h (1 Bft)
04.03.2015 03:25 4,2 C 1,0 C 59 % 59 % 1022,2 hPa 0,0 l/m 4,5 km/h (1 Bft) W-SW 247 -3,1 C 2,6 C 9,8 km/h (2 Bft)
04.03.2015 03:30 3,9 C 1,0 C 59 % 59 % 1022,2 hPa 0,0 l/m 6,1 km/h (2 Bft) W 270 -3,4 C 2,1 C 10,3 km/h (2 Bft)
04.03.2015 03:35 3,9 C 1,0 C 60 % 60 % 1022,2 hPa 0,0 l/m 7,4 km/h (2 Bft) W 270 -3,1 C 0,7 C 12,1 km/h (2 Bft)
04.03.2015 03:40 3,9 C 1,0 C 61 % 61 % 1022,2 hPa 0,0 l/m 8,9 km/h (2 Bft) W 270 -2,9 C -1,1 C 16,9 km/h (3 Bft)
04.03.2015 03:45 3,8 C 1,0 C 61 % 61 % 1022,2 hPa 0,0 l/m 9,5 km/h (2 Bft) W 270 -3,0 C -1,8 C 14,2 km/h (3 Bft)
04.03.2015 03:50 3,7 C 1,0 C 62 % 62 % 1022,2 hPa 0,0 l/m 9,7 km/h (2 Bft) W-SW 247 -2,9 C -2,2 C 17,1 km/h (3 Bft)
04.03.2015 03:55 3,6 C 1,0 C 62 % 62 % 1022,4 hPa 0,0 l/m 9,0 km/h (2 Bft) W-SW 247 -3,0 C -1,5 C 11,1 km/h (2 Bft)
04.03.2015 04:00 3,5 C 1,0 C 64 % 64 % 1022,4 hPa 0,0 l/m 8,7 km/h (2 Bft) W-SW 247 -2,7 C -1,3 C 8,7 km/h (2 Bft)
04.03.2015 04:05 3,3 C 1,0 C 65 % 65 % 1022,4 hPa 0,0 l/m 8,5 km/h (2 Bft) W 270 -2,6 C -1,3 C 10,9 km/h (2 Bft)
04.03.2015 04:10 3,0 C 1,0 C 68 % 68 % 1022,4 hPa 0,0 l/m 10,1 km/h (2 Bft) W 270 -2,3 C -3,9 C 23,5 km/h (4 Bft)
04.03.2015 04:15 2,7 C 1,0 C 69 % 69 % 1022,9 hPa 0,0 l/m 10,6 km/h (2 Bft) S 180 -2,4 C -5,2 C 7,9 km/h (2 Bft)
04.03.2015 04:20 2,5 C 1,0 C 73 % 73 % 1022,9 hPa 0,0 l/m 10,9 km/h (2 Bft) W 270 -1,8 C -5,9 C 17,2 km/h (3 Bft)
04.03.2015 04:25 2,3 C 1,0 C 74 % 74 % 1022,9 hPa 0,0 l/m 11,1 km/h (2 Bft) W-SW 247 -1,8 C -6,4 C 14,5 km/h (3 Bft)
04.03.2015 04:30 2,1 C 1,0 C 76 % 76 % 1022,9 hPa 0,0 l/m 11,3 km/h (2 Bft) W-SW 247 -1,7 C -7,0 C 12,2 km/h (2 Bft)
04.03.2015 04:35 1,9 C 1,1 C 77 % 77 % 1023,5 hPa 0,0 l/m 10,5 km/h (2 Bft) W 270 -1,7 C -6,3 C 15,6 km/h (3 Bft)
04.03.2015 04:40 1,5 C 1,1 C 78 % 78 % 1023,5 hPa 0,0 l/m 9,0 km/h (2 Bft) W 270 -1,9 C -5,0 C 11,4 km/h (2 Bft)
04.03.2015 04:45 1,3 C 1,2 C 79 % 79 % 1023,5 hPa 0,0 l/m 8,5 km/h (2 Bft) W-SW 247 -1,9 C -4,6 C 7,7 km/h (2 Bft)
04.03.2015 04:50 1,1 C 1,2 C 80 % 80 % 1023,5 hPa 0,0 l/m 7,2 km/h (2 Bft) W 270 -2,0 C -3,1 C 6,4 km/h (2 Bft)
04.03.2015 04:55 0,9 C 1,2 C 81 % 81 % 1024,1 hPa 0,0 l/m 6,1 km/h (2 Bft) W 270 -2,0 C -1,9 C 9,5 km/h (2 Bft)
04.03.2015 05:00 0,7 C 1,2 C 82 % 82 % 1024,1 hPa 0,0 l/m 5,5 km/h (1 Bft) W-SW 247 -2,0 C -1,9 C 6,6 km/h (2 Bft)
04.03.2015 05:05 0,6 C 1,2 C 82 % 82 % 1024,1 hPa 0,0 l/m 5,1 km/h (1 Bft) W-SW 247 -2,1 C -1,8 C 6,4 km/h (2 Bft)
04.03.2015 05:10 0,6 C 1,2 C 83 % 83 % 1024,1 hPa 0,0 l/m 4,7 km/h (1 Bft) W 270 -1,9 C -1,7 C 5,8 km/h (2 Bft)
04.03.2015 05:15 0,5 C 1,2 C 83 % 83 % 1024,7 hPa 0,0 l/m 5,0 km/h (1 Bft) NW 315 -2,0 C -1,9 C 11,1 km/h (2 Bft)
04.03.2015 05:20 0,2 C 1,2 C 84 % 84 % 1024,7 hPa 0,0 l/m 5,8 km/h (2 Bft) W-NW 292 -2,2 C -2,4 C 5,0 km/h (1 Bft)
04.03.2015 05:25 0,1 C 1,2 C 84 % 84 % 1024,7 hPa 0,0 l/m 6,0 km/h (2 Bft) NW 315 -2,3 C -2,6 C 7,2 km/h (2 Bft)
04.03.2015 05:30 0,0 C 1,2 C 84 % 84 % 1024,7 hPa 0,0 l/m 5,3 km/h (1 Bft) W-SW 247 -2,4 C -2,4 C 15,0 km/h (3 Bft)
04.03.2015 05:35 0,0 C 1,2 C 84 % 84 % 1025,1 hPa 0,0 l/m 5,5 km/h (1 Bft) W 270 -2,4 C -2,5 C 9,2 km/h (2 Bft)
04.03.2015 05:40 -0,1 C 1,2 C 84 % 84 % 1025,1 hPa 0,0 l/m 6,0 km/h (2 Bft) W 270 -2,5 C -2,8 C 8,2 km/h (2 Bft)
04.03.2015 05:45 -0,1 C 1,2 C 84 % 84 % 1025,1 hPa 0,0 l/m 5,0 km/h (1 Bft) W 270 -2,5 C -2,4 C 6,0 km/h (2 Bft)
04.03.2015 05:50 -0,2 C 1,2 C 85 % 85 % 1025,1 hPa 0,0 l/m 4,3 km/h (1 Bft) W 270 -2,4 C -2,1 C 3,5 km/h (1 Bft)
04.03.2015 05:55 -0,2 C 1,2 C 85 % 85 % 1025,6 hPa 0,0 l/m 4,2 km/h (1 Bft) W 270 -2,4 C -2,0 C 3,2 km/h (1 Bft)
04.03.2015 06:00 -0,3 C 1,2 C 85 % 85 % 1025,6 hPa 0,0 l/m 3,5 km/h (1 Bft) W 270 -2,5 C -1,7 C 5,1 km/h (1 Bft)
04.03.2015 06:05 -0,3 C 1,2 C 85 % 85 % 1025,6 hPa 0,0 l/m 3,1 km/h (1 Bft) W 270 -2,5 C -1,4 C 1,9 km/h (1 Bft)
04.03.2015 06:10 -0,4 C 1,2 C 85 % 85 % 1025,6 hPa 0,0 l/m 3,1 km/h (1 Bft) W 270 -2,6 C -1,5 C 6,3 km/h (2 Bft)
04.03.2015 06:15 -0,4 C 1,2 C 85 % 85 % 1025,9 hPa 0,0 l/m 3,2 km/h (1 Bft) W 270 -2,6 C -1,6 C 2,1 km/h (1 Bft)
04.03.2015 06:20 -0,5 C 1,2 C 85 % 85 % 1025,9 hPa 0,0 l/m 2,6 km/h (1 Bft) W 270 -2,7 C -1,2 C 4,0 km/h (1 Bft)
04.03.2015 06:25 -0,5 C 1,2 C 85 % 85 % 1025,9 hPa 0,0 l/m 1,8 km/h (1 Bft) W 270 -2,7 C -1,0 C 5,3 km/h (1 Bft)
04.03.2015 06:30 -0,6 C 1,2 C 85 % 85 % 1025,9 hPa 0,0 l/m 2,3 km/h (1 Bft) W 270 -2,8 C -1,1 C 1,8 km/h (1 Bft)
04.03.2015 06:35 -0,6 C 1,2 C 85 % 85 % 1026,2 hPa 0,0 l/m 1,8 km/h (1 Bft) W 270 -2,8 C -1,1 C 1,8 km/h (1 Bft)
04.03.2015 06:40 -0,6 C 1,2 C 85 % 85 % 1026,2 hPa 0,0 l/m 0,5 km/h (0 Bft) W 270 -2,8 C -1,1 C 3,1 km/h (1 Bft)
04.03.2015 06:45 -0,7 C 1,2 C 85 % 85 % 1026,2 hPa 0,0 l/m 0,8 km/h (0 Bft) W 270 -2,9 C -1,2 C 1,9 km/h (1 Bft)
04.03.2015 06:50 -0,8 C 1,2 C 85 % 85 % 1026,2 hPa 0,0 l/m 1,3 km/h (1 Bft) W 270 -3,0 C -1,3 C 0,0 km/h (0 Bft)
04.03.2015 06:55 -0,8 C 1,2 C 85 % 85 % 1026,2 hPa 0,0 l/m 1,0 km/h (0 Bft) W 270 -3,0 C -1,3 C 0,0 km/h (0 Bft)
04.03.2015 07:00 -0,7 C 1,2 C 85 % 85 % 1026,2 hPa 0,0 l/m 0,6 km/h (0 Bft) W 270 -2,9 C -1,4 C 4,2 km/h (1 Bft)
04.03.2015 07:05 -0,8 C 1,2 C 85 % 85 % 1026,2 hPa 0,0 l/m 1,4 km/h (1 Bft) W 270 -3,0 C -1,4 C 3,9 km/h (1 Bft)
04.03.2015 07:10 -0,8 C 1,2 C 84 % 84 % 1026,2 hPa 0,0 l/m 3,5 km/h (1 Bft) W 270 -3,2 C -2,3 C 6,3 km/h (2 Bft)
04.03.2015 07:15 -0,9 C 1,2 C 84 % 84 % 1026,5 hPa 0,0 l/m 3,9 km/h (1 Bft) W 270 -3,3 C -2,7 C 3,1 km/h (1 Bft)
04.03.2015 07:20 -0,8 C 1,2 C 84 % 84 % 1026,5 hPa 0,0 l/m 3,2 km/h (1 Bft) W 270 -3,2 C -2,2 C 2,7 km/h (1 Bft)
04.03.2015 07:25 -0,8 C 1,2 C 84 % 84 % 1026,5 hPa 0,0 l/m 2,4 km/h (1 Bft) W 270 -3,2 C -1,6 C 3,4 km/h (1 Bft)
04.03.2015 07:30 -0,8 C 1,2 C 84 % 84 % 1026,5 hPa 0,0 l/m 2,4 km/h (1 Bft) W 270 -3,2 C -1,6 C 1,9 km/h (1 Bft)
04.03.2015 07:35 -0,7 C 1,2 C 83 % 83 % 1026,6 hPa 0,0 l/m 2,1 km/h (1 Bft) W 270 -3,2 C -1,4 C 3,9 km/h (1 Bft)
04.03.2015 07:40 -0,7 C 1,2 C 83 % 83 % 1026,6 hPa 0,0 l/m 2,4 km/h (1 Bft) W 270 -3,2 C -1,5 C 2,6 km/h (1 Bft)
04.03.2015 07:45 -0,7 C 1,2 C 83 % 83 % 1026,6 hPa 0,0 l/m 2,4 km/h (1 Bft) W 270 -3,2 C -1,5 C 2,4 km/h (1 Bft)
04.03.2015 07:50 -0,6 C 1,2 C 82 % 82 % 1026,6 hPa 0,0 l/m 1,6 km/h (1 Bft) W 270 -3,3 C -1,4 C 2,6 km/h (1 Bft)
04.03.2015 07:55 -0,6 C 1,2 C 82 % 82 % 1026,7 hPa 0,0 l/m 1,8 km/h (1 Bft) W 270 -3,3 C -1,4 C 1,8 km/h (1 Bft)
04.03.2015 08:00 -0,5 C 1,2 C 81 % 81 % 1026,7 hPa 0,0 l/m 2,3 km/h (1 Bft) W 270 -3,3 C -1,3 C 3,7 km/h (1 Bft)
04.03.2015 08:05 -0,3 C 1,2 C 81 % 81 % 1026,7 hPa 0,0 l/m 2,4 km/h (1 Bft) W 270 -3,2 C -1,3 C 3,4 km/h (1 Bft)
04.03.2015 08:10 -0,1 C 1,2 C 81 % 81 % 1026,7 hPa 0,0 l/m 2,1 km/h (1 Bft) W 270 -3,0 C -1,0 C 2,3 km/h (1 Bft)
04.03.2015 08:15 0,0 C 1,2 C 80 % 80 % 1026,8 hPa 0,0 l/m 2,3 km/h (1 Bft) W 270 -3,0 C -0,8 C 0,0 km/h (0 Bft)
04.03.2015 08:20 0,0 C 1,2 C 79 % 79 % 1026,8 hPa 0,0 l/m 2,6 km/h (1 Bft) W 270 -3,2 C -0,9 C 3,5 km/h (1 Bft)
04.03.2015 08:25 0,2 C 1,2 C 79 % 79 % 1026,8 hPa 0,0 l/m 1,9 km/h (1 Bft) W 270 -3,0 C -0,7 C 2,3 km/h (1 Bft)
04.03.2015 08:30 0,4 C 1,2 C 79 % 79 % 1026,8 hPa 0,0 l/m 1,9 km/h (1 Bft) W 270 -2,8 C -0,4 C 3,1 km/h (1 Bft)
04.03.2015 08:35 0,5 C 1,2 C 78 % 78 % 1026,7 hPa 0,0 l/m 1,6 km/h (1 Bft) W 270 -2,9 C -0,2 C 0,0 km/h (0 Bft)
04.03.2015 08:40 0,8 C 1,2 C 78 % 78 % 1026,7 hPa 0,0 l/m 0,6 km/h (0 Bft) W 270 -2,6 C 0,1 C 0,0 km/h (0 Bft)
04.03.2015 08:45 1,1 C 1,2 C 78 % 78 % 1026,7 hPa 0,0 l/m 0,0 km/h (0 Bft) W 270 -2,3 C 0,5 C 0,0 km/h (0 Bft)
04.03.2015 08:50 1,1 C 1,2 C 78 % 78 % 1026,7 hPa 0,0 l/m 0,0 km/h (0 Bft) W 270 -2,3 C 0,5 C 0,0 km/h (0 Bft)
04.03.2015 08:55 1,4 C 1,2 C 78 % 78 % 1026,8 hPa 0,0 l/m 0,0 km/h (0 Bft) W 270 -2,0 C 0,7 C 0,0 km/h (0 Bft)
04.03.2015 09:00 1,5 C 1,1 C 78 % 78 % 1026,8 hPa 0,0 l/m 0,0 km/h (0 Bft) W 270 -1,9 C 1,0 C 0,0 km/h (0 Bft)
04.03.2015 09:05 1,7 C 1,1 C 77 % 77 % 1026,8 hPa 0,0 l/m 0,0 km/h (0 Bft) W 270 -1,9 C 1,2 C 0,0 km/h (0 Bft)
04.03.2015 09:10 2,0 C 1,1 C 77 % 77 % 1026,8 hPa 0,0 l/m 0,0 km/h (0 Bft) W 270 -1,6 C 1,5 C 0,0 km/h (0 Bft)
04.03.2015 09:15 1,9 C 1,1 C 77 % 77 % 1026,8 hPa 0,0 l/m 0,0 km/h (0 Bft) W 270 -1,7 C 1,6 C 0,0 km/h (0 Bft)
04.03.2015 09:20 1,7 C 1,1 C 76 % 76 % 1026,8 hPa 0,0 l/m 0,0 km/h (0 Bft) W 270 -2,1 C 1,5 C 0,0 km/h (0 Bft)
04.03.2015 09:25 2,0 C 1,1 C 76 % 76 % 1026,8 hPa 0,0 l/m 0,0 km/h (0 Bft) W 270 -1,8 C 1,5 C 0,0 km/h (0 Bft)
04.03.2015 09:30 2,3 C 1,1 C 76 % 76 % 1026,8 hPa 0,0 l/m 0,0 km/h (0 Bft) W 270 -1,5 C 1,9 C 0,0 km/h (0 Bft)
04.03.2015 09:35 2,1 C 1,1 C 75 % 75 % 1026,9 hPa 0,0 l/m 0,2 km/h (0 Bft) W 270 -1,9 C 1,9 C 3,4 km/h (1 Bft)
04.03.2015 09:40 2,0 C 1,1 C 74 % 74 % 1026,9 hPa 0,0 l/m 1,1 km/h (1 Bft) W 270 -2,1 C 1,8 C 5,3 km/h (1 Bft)
04.03.2015 09:45 2,0 C 1,1 C 74 % 74 % 1026,9 hPa 0,0 l/m 1,6 km/h (1 Bft) W 270 -2,1 C 1,7 C 3,9 km/h (1 Bft)
04.03.2015 09:50 2,1 C 1,1 C 74 % 74 % 1026,9 hPa 0,0 l/m 1,6 km/h (1 Bft) W 270 -2,0 C 1,7 C 0,0 km/h (0 Bft)
04.03.2015 09:55 2,4 C 1,1 C 73 % 73 % 1026,9 hPa 0,0 l/m 1,4 km/h (1 Bft) W 270 -1,9 C 1,9 C 1,9 km/h (1 Bft)
04.03.2015 10:00 3,1 C 1,1 C 73 % 73 % 1026,9 hPa 0,0 l/m 0,3 km/h (0 Bft) W 270 -1,3 C 2,6 C 0,0 km/h (0 Bft)
04.03.2015 10:05 3,2 C 1,1 C 73 % 73 % 1026,9 hPa 0,0 l/m 0,0 km/h (0 Bft) W 270 -1,2 C 3,2 C 0,0 km/h (0 Bft)
04.03.2015 10:10 3,0 C 1,1 C 73 % 73 % 1026,9 hPa 0,0 l/m 0,0 km/h (0 Bft) W 270 -1,4 C 3,6 C 0,0 km/h (0 Bft)
04.03.2015 10:15 3,1 C 1,1 C 72 % 72 % 1026,9 hPa 0,0 l/m 0,0 km/h (0 Bft) W 270 -1,4 C 3,9 C 0,0 km/h (0 Bft)
04.03.2015 10:20 3,1 C 1,1 C 72 % 72 % 1026,9 hPa 0,0 l/m 0,0 km/h (0 Bft) W 270 -1,4 C 4,2 C 0,0 km/h (0 Bft)
04.03.2015 10:25 3,2 C 1,1 C 72 % 72 % 1026,9 hPa 0,0 l/m 0,0 km/h (0 Bft) W 270 -1,3 C 4,5 C 0,0 km/h (0 Bft)
04.03.2015 10:30 3,4 C 1,1 C 72 % 72 % 1026,9 hPa 0,0 l/m 0,0 km/h (0 Bft) W 270 -1,2 C 5,0 C 0,0 km/h (0 Bft)
04.03.2015 10:35 3,3 C 1,1 C 70 % 70 % 1027,1 hPa 0,0 l/m 0,0 km/h (0 Bft) W-SW 247 -1,6 C 5,1 C 0,0 km/h (0 Bft)
04.03.2015 10:40 3,5 C 1,1 C 68 % 68 % 1027,1 hPa 0,0 l/m 0,6 km/h (0 Bft) W-NW 292 -1,8 C 5,1 C 3,4 km/h (1 Bft)
04.03.2015 10:45 3,6 C 1,1 C 66 % 66 % 1027,1 hPa 0,0 l/m 1,6 km/h (1 Bft) W 270 -2,1 C 5,4 C 4,8 km/h (1 Bft)
04.03.2015 10:50 4,1 C 1,1 C 65 % 65 % 1027,1 hPa 0,0 l/m 3,5 km/h (1 Bft) W-NW 292 -1,9 C 5,8 C 3,4 km/h (1 Bft)
04.03.2015 10:55 3,9 C 1,1 C 64 % 64 % 1027,6 hPa 0,0 l/m 4,0 km/h (1 Bft) NW 315 -2,3 C 5,9 C 4,5 km/h (1 Bft)
04.03.2015 11:00 4,0 C 1,1 C 63 % 63 % 1027,6 hPa 0,0 l/m 4,2 km/h (1 Bft) W 270 -2,4 C 6,1 C 7,6 km/h (2 Bft)
04.03.2015 11:05 3,7 C 1,1 C 63 % 63 % 1027,6 hPa 0,0 l/m 4,5 km/h (1 Bft) W 270 -2,7 C 5,7 C 7,4 km/h (2 Bft)
04.03.2015 11:10 3,5 C 1,1 C 63 % 63 % 1027,6 hPa 0,0 l/m 5,0 km/h (1 Bft) W-SW 247 -2,9 C 4,9 C 4,3 km/h (1 Bft)
04.03.2015 11:15 3,5 C 1,1 C 63 % 63 % 1027,5 hPa 0,0 l/m 5,0 km/h (1 Bft) W-NW 292 -2,9 C 4,9 C 6,9 km/h (2 Bft)
04.03.2015 11:20 3,6 C 1,1 C 63 % 63 % 1027,5 hPa 0,0 l/m 4,3 km/h (1 Bft) W-SW 247 -2,8 C 5,2 C 3,1 km/h (1 Bft)
04.03.2015 11:25 3,9 C 1,1 C 63 % 63 % 1027,5 hPa 0,0 l/m 4,2 km/h (1 Bft) W 270 -2,5 C 5,3 C 4,0 km/h (1 Bft)
04.03.2015 11:30 4,0 C 1,1 C 63 % 63 % 1027,5 hPa 0,0 l/m 3,5 km/h (1 Bft) W-SW 247 -2,4 C 5,9 C 3,4 km/h (1 Bft)
04.03.2015 11:35 4,2 C 1,1 C 63 % 63 % 1027,6 hPa 0,0 l/m 3,1 km/h (1 Bft) SW 225 -2,2 C 6,4 C 3,1 km/h (1 Bft)
04.03.2015 11:40 4,0 C 1,1 C 63 % 63 % 1027,6 hPa 0,0 l/m 3,2 km/h (1 Bft) SW 225 -2,4 C 6,5 C 2,9 km/h (1 Bft)
04.03.2015 11:45 3,9 C 1,1 C 63 % 63 % 1027,6 hPa 0,0 l/m 3,5 km/h (1 Bft) W-SW 247 -2,5 C 6,4 C 4,3 km/h (1 Bft)
04.03.2015 11:50 3,7 C 1,1 C 62 % 62 % 1027,6 hPa 0,0 l/m 3,7 km/h (1 Bft) W-SW 247 -2,9 C 6,1 C 6,3 km/h (2 Bft)
04.03.2015 11:55 4,0 C 1,1 C 63 % 63 % 1027,7 hPa 0,0 l/m 3,5 km/h (1 Bft) W 270 -2,4 C 6,2 C 1,8 km/h (1 Bft)
04.03.2015 12:00 4,4 C 1,1 C 63 % 63 % 1027,7 hPa 0,0 l/m 2,6 km/h (1 Bft) NW 315 -2,0 C 6,7 C 2,6 km/h (1 Bft)
04.03.2015 12:05 4,4 C 1,1 C 63 % 63 % 1027,7 hPa 0,0 l/m 1,9 km/h (1 Bft) W-SW 247 -2,0 C 6,8 C 0,0 km/h (0 Bft)
04.03.2015 12:10 3,8 C 1,1 C 61 % 61 % 1027,7 hPa 0,0 l/m 3,5 km/h (1 Bft) W 270 -3,0 C 6,7 C 4,5 km/h (1 Bft)
04.03.2015 12:15 4,0 C 1,1 C 62 % 62 % 1027,5 hPa 0,0 l/m 4,2 km/h (1 Bft) W-SW 247 -2,6 C 6,1 C 2,6 km/h (1 Bft)
04.03.2015 12:20 3,9 C 1,1 C 62 % 62 % 1027,5 hPa 0,0 l/m 4,7 km/h (1 Bft) W 270 -2,7 C 5,8 C 8,9 km/h (2 Bft)
04.03.2015 12:25 4,2 C 1,1 C 62 % 62 % 1027,5 hPa 0,0 l/m 4,5 km/h (1 Bft) W-SW 247 -2,4 C 5,8 C 3,1 km/h (1 Bft)
04.03.2015 12:30 4,3 C 1,1 C 62 % 62 % 1027,5 hPa 0,0 l/m 4,0 km/h (1 Bft) W-SW 247 -2,3 C 6,4 C 4,8 km/h (1 Bft)
04.03.2015 12:35 4,1 C 1,1 C 62 % 62 % 1027,9 hPa 0,0 l/m 4,2 km/h (1 Bft) W 270 -2,5 C 6,7 C 3,9 km/h (1 Bft)
04.03.2015 12:40 3,2 C 1,1 C 63 % 63 % 1027,9 hPa 0,0 l/m 4,8 km/h (1 Bft) W-NW 292 -3,1 C 5,6 C 2,7 km/h (1 Bft)
04.03.2015 12:45 2,9 C 1,1 C 64 % 64 % 1027,9 hPa 0,0 l/m 5,1 km/h (1 Bft) W 270 -3,2 C 4,7 C 8,0 km/h (2 Bft)
04.03.2015 12:50 2,7 C 1,1 C 65 % 65 % 1027,9 hPa 0,0 l/m 6,0 km/h (2 Bft) W-SW 247 -3,2 C 3,4 C 8,9 km/h (2 Bft)
04.03.2015 12:55 2,9 C 1,1 C 64 % 64 % 1027,5 hPa 0,0 l/m 6,9 km/h (2 Bft) W-SW 247 -3,2 C 2,2 C 5,0 km/h (1 Bft)
04.03.2015 13:00 3,4 C 1,1 C 63 % 63 % 1027,5 hPa 0,0 l/m 6,6 km/h (2 Bft) W 270 -3,0 C 3,0 C 10,9 km/h (2 Bft)
04.03.2015 13:05 3,7 C 1,1 C 63 % 63 % 1027,5 hPa 0,0 l/m 6,1 km/h (2 Bft) W-SW 247 -2,7 C 3,8 C 7,9 km/h (2 Bft)
04.03.2015 13:10 3,7 C 1,1 C 61 % 61 % 1027,5 hPa 0,0 l/m 6,3 km/h (2 Bft) W 270 -3,1 C 4,2 C 3,4 km/h (1 Bft)
04.03.2015 13:15 3,6 C 1,1 C 61 % 61 % 1027,3 hPa 0,0 l/m 6,1 km/h (2 Bft) W-SW 247 -3,2 C 4,4 C 3,7 km/h (1 Bft)
04.03.2015 13:20 3,9 C 1,1 C 61 % 61 % 1027,3 hPa 0,0 l/m 5,3 km/h (1 Bft) W-SW 247 -2,9 C 4,8 C 6,9 km/h (2 Bft)
04.03.2015 13:25 3,9 C 1,1 C 60 % 60 % 1027,3 hPa 0,0 l/m 5,5 km/h (1 Bft) W-SW 247 -3,1 C 4,9 C 8,0 km/h (2 Bft)
04.03.2015 13:30 4,0 C 1,1 C 60 % 60 % 1027,3 hPa 0,0 l/m 5,3 km/h (1 Bft) W-SW 247 -3,0 C 5,1 C 5,8 km/h (2 Bft)
04.03.2015 13:35 4,1 C 1,1 C 60 % 60 % 1027,6 hPa 0,0 l/m 5,3 km/h (1 Bft) W-SW 247 -3,0 C 5,2 C 8,2 km/h (2 Bft)
04.03.2015 13:40 4,1 C 1,1 C 59 % 59 % 1027,6 hPa 0,0 l/m 6,0 km/h (2 Bft) W 270 -3,2 C 4,9 C 5,3 km/h (1 Bft)
04.03.2015 13:45 4,3 C 1,1 C 59 % 59 % 1027,6 hPa 0,0 l/m 6,3 km/h (2 Bft) NW 315 -3,0 C 4,9 C 8,7 km/h (2 Bft)
04.03.2015 13:50 4,0 C 1,1 C 59 % 59 % 1027,6 hPa 0,0 l/m 6,6 km/h (2 Bft) NW 315 -3,3 C 4,6 C 4,7 km/h (1 Bft)
04.03.2015 13:55 4,2 C 1,1 C 59 % 59 % 1027,4 hPa 0,0 l/m 7,1 km/h (2 Bft) W 270 -3,1 C 4,0 C 6,1 km/h (2 Bft)
04.03.2015 14:00 4,7 C 1,1 C 59 % 59 % 1027,4 hPa 0,0 l/m 6,0 km/h (2 Bft) W 270 -2,6 C 5,3 C 5,1 km/h (1 Bft)
04.03.2015 14:05 4,5 C 1,1 C 59 % 59 % 1027,4 hPa 0,0 l/m 5,3 km/h (1 Bft) W-SW 247 -2,8 C 5,7 C 5,6 km/h (1 Bft)
04.03.2015 14:10 4,7 C 1,1 C 59 % 59 % 1027,4 hPa 0,0 l/m 4,5 km/h (1 Bft) W-SW 247 -2,6 C 6,3 C 6,3 km/h (2 Bft)
04.03.2015 14:15 5,0 C 1,1 C 59 % 59 % 1027,4 hPa 0,0 l/m 4,7 km/h (1 Bft) W-SW 247 -2,3 C 6,4 C 7,9 km/h (2 Bft)
04.03.2015 14:20 4,4 C 1,1 C 59 % 59 % 1027,4 hPa 0,0 l/m 5,1 km/h (1 Bft) W-SW 247 -2,9 C 6,1 C 4,0 km/h (1 Bft)
04.03.2015 14:25 4,5 C 1,1 C 59 % 59 % 1027,4 hPa 0,0 l/m 6,1 km/h (2 Bft) W-SW 247 -2,8 C 5,4 C 6,3 km/h (2 Bft)
04.03.2015 14:30 4,9 C 1,1 C 59 % 59 % 1027,4 hPa 0,0 l/m 5,6 km/h (1 Bft) W-SW 247 -2,4 C 5,7 C 3,9 km/h (1 Bft)
04.03.2015 14:35 4,8 C 1,1 C 59 % 59 % 1027,4 hPa 0,0 l/m 4,7 km/h (1 Bft) W 270 -2,5 C 6,4 C 7,7 km/h (2 Bft)
04.03.2015 14:40 4,3 C 1,1 C 58 % 58 % 1027,4 hPa 0,0 l/m 4,7 km/h (1 Bft) W-SW 247 -3,2 C 6,2 C 5,3 km/h (1 Bft)
04.03.2015 14:45 4,2 C 1,1 C 59 % 59 % 1027,4 hPa 0,0 l/m 5,8 km/h (2 Bft) SW 225 -3,1 C 5,2 C 7,1 km/h (2 Bft)
04.03.2015 14:50 4,6 C 1,1 C 59 % 59 % 1027,4 hPa 0,0 l/m 5,8 km/h (2 Bft) S 180 -2,7 C 5,2 C 8,0 km/h (2 Bft)
04.03.2015 14:55 4,2 C 1,1 C 59 % 59 % 1027,4 hPa 0,0 l/m 5,6 km/h (1 Bft) W-SW 247 -3,1 C 5,3 C 7,7 km/h (2 Bft)
04.03.2015 15:00 3,8 C 1,1 C 60 % 60 % 1027,4 hPa 0,0 l/m 5,8 km/h (2 Bft) W 270 -3,2 C 4,6 C 9,7 km/h (2 Bft)
04.03.2015 15:05 4,0 C 1,1 C 61 % 61 % 1027,4 hPa 0,0 l/m 6,0 km/h (2 Bft) W 270 -2,8 C 4,4 C 6,1 km/h (2 Bft)
04.03.2015 15:10 3,9 C 1,1 C 61 % 61 % 1027,4 hPa 0,0 l/m 6,4 km/h (2 Bft) W-SW 247 -2,9 C 4,1 C 7,6 km/h (2 Bft)
04.03.2015 15:15 4,2 C 1,1 C 61 % 61 % 1027,2 hPa 0,0 l/m 6,1 km/h (2 Bft) W-SW 247 -2,6 C 4,1 C 6,8 km/h (2 Bft)
04.03.2015 15:20 4,2 C 1,1 C 59 % 59 % 1027,2 hPa 0,0 l/m 6,1 km/h (2 Bft) W-SW 247 -3,1 C 4,4 C 11,7 km/h (2 Bft)
04.03.2015 15:25 4,1 C 1,1 C 59 % 59 % 1027,2 hPa 0,0 l/m 6,6 km/h (2 Bft) W 270 -3,2 C 4,0 C 6,6 km/h (2 Bft)
04.03.2015 15:30 3,8 C 1,1 C 58 % 58 % 1027,2 hPa 0,0 l/m 6,3 km/h (2 Bft) W-SW 247 -3,7 C 4,3 C 3,5 km/h (1 Bft)
04.03.2015 15:35 3,6 C 1,1 C 59 % 59 % 1027,2 hPa 0,0 l/m 6,0 km/h (2 Bft) SO 135 -3,6 C 4,2 C 10,0 km/h (2 Bft)
04.03.2015 15:40 3,2 C 1,1 C 59 % 59 % 1027,2 hPa 0,0 l/m 5,1 km/h (1 Bft) W-SW 247 -4,0 C 3,8 C 7,2 km/h (2 Bft)
04.03.2015 15:45 3,4 C 1,1 C 59 % 59 % 1027,2 hPa 0,0 l/m 4,7 km/h (1 Bft) W-SW 247 -3,8 C 3,5 C 4,0 km/h (1 Bft)
04.03.2015 15:50 3,2 C 1,1 C 59 % 59 % 1027,2 hPa 0,0 l/m 4,3 km/h (1 Bft) W-SW 247 -4,0 C 3,6 C 6,6 km/h (2 Bft)
04.03.2015 15:55 3,1 C 1,1 C 59 % 59 % 1027,1 hPa 0,0 l/m 4,2 km/h (1 Bft) W 270 -4,1 C 3,6 C 3,7 km/h (1 Bft)
04.03.2015 16:00 3,2 C 1,1 C 59 % 59 % 1027,1 hPa 0,0 l/m 4,2 km/h (1 Bft) W 270 -4,0 C 3,4 C 3,2 km/h (1 Bft)
04.03.2015 16:05 3,2 C 1,1 C 60 % 60 % 1027,1 hPa 0,0 l/m 3,4 km/h (1 Bft) W 270 -3,8 C 3,8 C 2,9 km/h (1 Bft)
04.03.2015 16:10 2,9 C 1,1 C 60 % 60 % 1027,1 hPa 0,0 l/m 3,4 km/h (1 Bft) W-SW 247 -4,1 C 3,7 C 2,7 km/h (1 Bft)
04.03.2015 16:15 2,7 C 1,1 C 61 % 61 % 1027,1 hPa 0,0 l/m 3,9 km/h (1 Bft) NW 315 -4,1 C 3,2 C 3,4 km/h (1 Bft)
04.03.2015 16:20 2,7 C 1,1 C 62 % 62 % 1027,1 hPa 0,0 l/m 3,2 km/h (1 Bft) SW 225 -3,8 C 3,1 C 2,1 km/h (1 Bft)
04.03.2015 16:25 2,6 C 1,0 C 62 % 62 % 1027,1 hPa 0,0 l/m 2,7 km/h (1 Bft) W-SW 247 -3,9 C 3,3 C 3,2 km/h (1 Bft)
04.03.2015 16:30 2,4 C 1,0 C 63 % 63 % 1027,1 hPa 0,0 l/m 2,9 km/h (1 Bft) W-SW 247 -3,9 C 3,0 C 3,9 km/h (1 Bft)
04.03.2015 16:35 2,1 C 1,0 C 63 % 63 % 1027,2 hPa 0,0 l/m 3,2 km/h (1 Bft) W-SW 247 -4,2 C 2,4 C 5,0 km/h (1 Bft)
04.03.2015 16:40 2,0 C 1,0 C 64 % 64 % 1027,2 hPa 0,0 l/m 3,1 km/h (1 Bft) S 180 -4,1 C 2,2 C 3,1 km/h (1 Bft)
04.03.2015 16:45 1,9 C 1,0 C 64 % 64 % 1027,2 hPa 0,0 l/m 2,6 km/h (1 Bft) W-SW 247 -4,2 C 2,2 C 1,9 km/h (1 Bft)
04.03.2015 16:50 1,7 C 1,0 C 65 % 65 % 1027,2 hPa 0,0 l/m 2,4 km/h (1 Bft) SW 225 -4,2 C 1,9 C 2,6 km/h (1 Bft)
04.03.2015 16:55 1,7 C 1,0 C 66 % 66 % 1027,2 hPa 0,0 l/m 1,9 km/h (1 Bft) W-SW 247 -4,0 C 1,7 C 0,0 km/h (0 Bft)
04.03.2015 17:00 1,5 C 1,0 C 66 % 66 % 1027,2 hPa 0,0 l/m 1,6 km/h (1 Bft) S 180 -4,1 C 1,5 C 2,7 km/h (1 Bft)
04.03.2015 17:05 1,4 C 1,0 C 67 % 67 % 1027,2 hPa 0,0 l/m 1,6 km/h (1 Bft) SW 225 -4,0 C 1,4 C 1,6 km/h (1 Bft)
04.03.2015 17:10 1,2 C 1,0 C 67 % 67 % 1027,2 hPa 0,0 l/m 1,1 km/h (1 Bft) SW 225 -4,2 C 1,2 C 1,6 km/h (1 Bft)
04.03.2015 17:15 1,0 C 1,1 C 68 % 68 % 1027,5 hPa 0,0 l/m 0,8 km/h (0 Bft) SW 225 -4,2 C 1,0 C 1,6 km/h (1 Bft)
04.03.2015 17:20 1,0 C 1,1 C 69 % 69 % 1027,5 hPa 0,0 l/m 1,6 km/h (1 Bft) W-SW 247 -4,0 C 0,7 C 5,8 km/h (2 Bft)
04.03.2015 17:25 1,0 C 1,1 C 69 % 69 % 1027,5 hPa 0,0 l/m 2,4 km/h (1 Bft) W 270 -4,0 C 0,6 C 2,1 km/h (1 Bft)
04.03.2015 17:30 0,8 C 1,1 C 71 % 71 % 1027,5 hPa 0,0 l/m 2,7 km/h (1 Bft) W-SW 247 -3,8 C 0,3 C 4,7 km/h (1 Bft)
04.03.2015 17:35 0,7 C 1,1 C 71 % 71 % 1027,8 hPa 0,0 l/m 1,8 km/h (1 Bft) W-SW 247 -3,9 C 0,4 C 0,0 km/h (0 Bft)
04.03.2015 17:40 0,4 C 1,1 C 72 % 72 % 1027,8 hPa 0,0 l/m 0,6 km/h (0 Bft) S 180 -4,0 C 0,1 C 0,0 km/h (0 Bft)
04.03.2015 17:45 0,3 C 1,1 C 72 % 72 % 1027,8 hPa 0,0 l/m 0,8 km/h (0 Bft) S 180 -4,1 C -0,2 C 2,4 km/h (1 Bft)
04.03.2015 17:50 0,3 C 1,1 C 73 % 73 % 1027,8 hPa 0,0 l/m 2,3 km/h (1 Bft) W-SW 247 -4,0 C -0,4 C 3,9 km/h (1 Bft)
04.03.2015 17:55 0,2 C 1,1 C 73 % 73 % 1027,9 hPa 0,0 l/m 2,6 km/h (1 Bft) SW 225 -4,1 C -0,8 C 3,4 km/h (1 Bft)
04.03.2015 18:00 0,1 C 1,1 C 73 % 73 % 1027,9 hPa 0,0 l/m 3,4 km/h (1 Bft) W-SW 247 -4,2 C -1,5 C 3,9 km/h (1 Bft)
04.03.2015 18:05 -0,1 C 1,1 C 73 % 73 % 1027,9 hPa 0,0 l/m 3,5 km/h (1 Bft) SW 225 -4,3 C -1,7 C 3,9 km/h (1 Bft)
04.03.2015 18:10 -0,2 C 1,1 C 73 % 73 % 1027,9 hPa 0,0 l/m 4,2 km/h (1 Bft) S 180 -4,4 C -2,3 C 4,0 km/h (1 Bft)
04.03.2015 18:15 -0,3 C 1,1 C 74 % 74 % 1027,8 hPa 0,0 l/m 4,5 km/h (1 Bft) S-SO 157 -4,4 C -2,6 C 5,3 km/h (1 Bft)
04.03.2015 18:20 -0,3 C 1,1 C 74 % 74 % 1027,8 hPa 0,0 l/m 4,5 km/h (1 Bft) S 180 -4,4 C -2,8 C 5,8 km/h (2 Bft)
04.03.2015 18:25 -0,5 C 1,1 C 75 % 75 % 1027,8 hPa 0,0 l/m 5,1 km/h (1 Bft) W-SW 247 -4,4 C -3,1 C 7,2 km/h (2 Bft)
04.03.2015 18:30 -0,5 C 1,1 C 75 % 75 % 1027,8 hPa 0,0 l/m 5,8 km/h (2 Bft) S 180 -4,4 C -3,6 C 5,5 km/h (1 Bft)
04.03.2015 18:35 -0,5 C 1,1 C 75 % 75 % 1028,1 hPa 0,0 l/m 5,3 km/h (1 Bft) S 180 -4,4 C -3,4 C 6,8 km/h (2 Bft)
04.03.2015 18:40 -0,7 C 1,1 C 75 % 75 % 1028,1 hPa 0,0 l/m 4,3 km/h (1 Bft) S 180 -4,6 C -3,1 C 6,3 km/h (2 Bft)
04.03.2015 18:45 -0,7 C 1,1 C 75 % 75 % 1028,1 hPa 0,0 l/m 4,3 km/h (1 Bft) S-SW 202 -4,6 C -3,1 C 6,4 km/h (2 Bft)
04.03.2015 18:50 -0,8 C 1,1 C 75 % 75 % 1028,1 hPa 0,0 l/m 3,2 km/h (1 Bft) S-SO 157 -4,7 C -2,6 C 2,3 km/h (1 Bft)
04.03.2015 18:55 -0,9 C 1,1 C 75 % 75 % 1028,1 hPa 0,0 l/m 3,1 km/h (1 Bft) S-SW 202 -4,8 C -2,4 C 5,1 km/h (1 Bft)
04.03.2015 19:00 -1,0 C 1,1 C 75 % 75 % 1028,1 hPa 0,0 l/m 2,7 km/h (1 Bft) SO 135 -4,9 C -2,3 C 0,0 km/h (0 Bft)
04.03.2015 19:05 -1,3 C 1,1 C 75 % 75 % 1028,1 hPa 0,0 l/m 1,8 km/h (1 Bft) SW 225 -5,1 C -2,2 C 2,4 km/h (1 Bft)
04.03.2015 19:10 -1,7 C 1,1 C 75 % 75 % 1028,1 hPa 0,0 l/m 0,2 km/h (0 Bft) O-SO 112 -5,5 C -2,5 C 0,0 km/h (0 Bft)
04.03.2015 19:15 -1,9 C 1,1 C 75 % 75 % 1028,2 hPa 0,0 l/m 0,2 km/h (0 Bft) SO 135 -5,7 C -2,7 C 0,0 km/h (0 Bft)
04.03.2015 19:20 -2,1 C 1,1 C 76 % 76 % 1028,2 hPa 0,0 l/m 0,0 km/h (0 Bft) O-NO 67 -5,7 C -3,1 C 0,0 km/h (0 Bft)
04.03.2015 19:25 -2,1 C 1,1 C 76 % 76 % 1028,2 hPa 0,0 l/m 0,0 km/h (0 Bft) S-SO 157 -5,7 C -3,3 C 0,0 km/h (0 Bft)
04.03.2015 19:30 -2,1 C 1,0 C 76 % 76 % 1028,2 hPa 0,0 l/m 0,0 km/h (0 Bft) SO 135 -5,7 C -3,6 C 0,0 km/h (0 Bft)
04.03.2015 19:35 -2,6 C 1,0 C 76 % 76 % 1028,5 hPa 0,0 l/m 0,0 km/h (0 Bft) O-SO 112 -6,2 C -3,7 C 0,0 km/h (0 Bft)
04.03.2015 19:40 -2,2 C 1,0 C 77 % 77 % 1028,5 hPa 0,0 l/m 0,2 km/h (0 Bft) O-NO 67 -5,7 C -3,7 C 0,0 km/h (0 Bft)
04.03.2015 19:45 -2,2 C 1,0 C 77 % 77 % 1028,5 hPa 0,0 l/m 0,2 km/h (0 Bft) O-NO 67 -5,7 C -3,5 C 0,0 km/h (0 Bft)
04.03.2015 19:50 -2,1 C 1,0 C 77 % 77 % 1028,5 hPa 0,0 l/m 0,0 km/h (0 Bft) NO 45 -5,6 C -3,4 C 0,0 km/h (0 Bft)
04.03.2015 19:55 -2,0 C 1,1 C 77 % 77 % 1028,4 hPa 0,0 l/m 0,0 km/h (0 Bft) NO 45 -5,5 C -3,2 C 0,0 km/h (0 Bft)
04.03.2015 20:00 -1,8 C 1,1 C 77 % 77 % 1028,4 hPa 0,0 l/m 0,0 km/h (0 Bft) SO 135 -5,3 C -2,9 C 0,0 km/h (0 Bft)
04.03.2015 20:05 -1,8 C 1,1 C 77 % 77 % 1028,4 hPa 0,0 l/m 0,0 km/h (0 Bft) SO 135 -5,3 C -2,8 C 0,0 km/h (0 Bft)
04.03.2015 20:10 -1,9 C 1,1 C 77 % 77 % 1028,4 hPa 0,0 l/m 0,0 km/h (0 Bft) W-SW 247 -5,4 C -2,7 C 0,0 km/h (0 Bft)
04.03.2015 20:15 -1,9 C 1,1 C 77 % 77 % 1028,6 hPa 0,0 l/m 0,0 km/h (0 Bft) S-SW 202 -5,4 C -2,7 C 0,0 km/h (0 Bft)
04.03.2015 20:20 -1,9 C 1,1 C 78 % 78 % 1028,6 hPa 0,0 l/m 0,0 km/h (0 Bft) W 270 -5,2 C -2,7 C 0,0 km/h (0 Bft)
04.03.2015 20:25 -1,8 C 1,1 C 78 % 78 % 1028,6 hPa 0,0 l/m 0,0 km/h (0 Bft) NO 45 -5,1 C -2,7 C 0,0 km/h (0 Bft)
04.03.2015 20:30 -1,7 C 1,1 C 78 % 78 % 1028,6 hPa 0,0 l/m 0,0 km/h (0 Bft) NO 45 -5,0 C -2,5 C 0,0 km/h (0 Bft)
04.03.2015 20:35 -1,9 C 1,1 C 78 % 78 % 1028,6 hPa 0,0 l/m 0,0 km/h (0 Bft) NO 45 -5,2 C -2,5 C 0,0 km/h (0 Bft)
04.03.2015 20:40 -1,9 C 1,1 C 78 % 78 % 1028,6 hPa 0,0 l/m 0,0 km/h (0 Bft) O-NO 67 -5,2 C -2,6 C 0,0 km/h (0 Bft)
04.03.2015 20:45 -1,9 C 1,1 C 78 % 78 % 1028,6 hPa 0,0 l/m 0,0 km/h (0 Bft) NO 45 -5,2 C -2,6 C 0,0 km/h (0 Bft)
04.03.2015 20:50 -1,7 C 1,1 C 78 % 78 % 1028,6 hPa 0,0 l/m 0,2 km/h (0 Bft) O-SO 112 -5,0 C -2,6 C 0,0 km/h (0 Bft)
04.03.2015 20:55 -1,8 C 1,1 C 78 % 78 % 1028,9 hPa 0,0 l/m 0,3 km/h (0 Bft) S 180 -5,1 C -2,5 C 2,9 km/h (1 Bft)
04.03.2015 21:00 -1,2 C 1,1 C 78 % 78 % 1028,9 hPa 0,0 l/m 1,4 km/h (1 Bft) SW 225 -4,5 C -2,3 C 3,2 km/h (1 Bft)
04.03.2015 21:05 -1,1 C 1,1 C 78 % 78 % 1028,9 hPa 0,0 l/m 1,9 km/h (1 Bft) N-NW 337 -4,4 C -2,1 C 1,9 km/h (1 Bft)
04.03.2015 21:10 -1,1 C 1,1 C 78 % 78 % 1028,9 hPa 0,0 l/m 1,8 km/h (1 Bft) SW 225 -4,4 C -2,0 C 6,0 km/h (2 Bft)
04.03.2015 21:15 -1,0 C 1,1 C 78 % 78 % 1029,0 hPa 0,0 l/m 1,4 km/h (1 Bft) S-SO 157 -4,3 C -1,8 C 4,8 km/h (1 Bft)
04.03.2015 21:20 -0,8 C 1,1 C 78 % 78 % 1029,0 hPa 0,0 l/m 2,4 km/h (1 Bft) W 270 -4,1 C -1,7 C 5,1 km/h (1 Bft)
04.03.2015 21:25 -0,8 C 1,1 C 77 % 77 % 1029,0 hPa 0,0 l/m 3,2 km/h (1 Bft) S 180 -4,3 C -2,2 C 4,7 km/h (1 Bft)
04.03.2015 21:30 -0,7 C 1,1 C 77 % 77 % 1029,0 hPa 0,0 l/m 3,4 km/h (1 Bft) S-SO 157 -4,2 C -2,2 C 3,9 km/h (1 Bft)
04.03.2015 21:35 -0,6 C 1,1 C 76 % 76 % 1029,2 hPa 0,0 l/m 3,7 km/h (1 Bft) S 180 -4,3 C -2,3 C 6,8 km/h (2 Bft)
04.03.2015 21:40 -0,5 C 1,1 C 75 % 75 % 1029,2 hPa 0,0 l/m 3,5 km/h (1 Bft) SW 225 -4,4 C -2,2 C 3,9 km/h (1 Bft)
04.03.2015 21:45 -0,5 C 1,1 C 75 % 75 % 1029,2 hPa 0,0 l/m 3,2 km/h (1 Bft) W 270 -4,4 C -1,9 C 2,9 km/h (1 Bft)
04.03.2015 21:50 -0,5 C 1,1 C 75 % 75 % 1029,2 hPa 0,0 l/m 2,6 km/h (1 Bft) S 180 -4,4 C -1,3 C 3,2 km/h (1 Bft)
04.03.2015 21:55 -0,5 C 1,1 C 74 % 74 % 1029,4 hPa 0,0 l/m 2,6 km/h (1 Bft) SW 225 -4,5 C -1,3 C 2,6 km/h (1 Bft)
04.03.2015 22:00 -0,4 C 1,1 C 74 % 74 % 1029,4 hPa 0,0 l/m 2,9 km/h (1 Bft) SW 225 -4,5 C -1,6 C 4,0 km/h (1 Bft)
04.03.2015 22:05 -0,4 C 1,1 C 74 % 74 % 1029,4 hPa 0,0 l/m 3,4 km/h (1 Bft) SW 225 -4,5 C -1,9 C 4,3 km/h (1 Bft)
04.03.2015 22:10 -0,4 C 1,1 C 73 % 73 % 1029,4 hPa 0,0 l/m 4,2 km/h (1 Bft) S 180 -4,6 C -2,4 C 6,8 km/h (2 Bft)
04.03.2015 22:15 -0,5 C 1,1 C 73 % 73 % 1029,7 hPa 0,0 l/m 4,5 km/h (1 Bft) S-SO 157 -4,7 C -2,5 C 4,8 km/h (1 Bft)
04.03.2015 22:20 -0,5 C 1,1 C 73 % 73 % 1029,7 hPa 0,0 l/m 4,7 km/h (1 Bft) SW 225 -4,7 C -2,7 C 4,0 km/h (1 Bft)
04.03.2015 22:25 -0,5 C 1,1 C 73 % 73 % 1029,7 hPa 0,0 l/m 4,8 km/h (1 Bft) S-SW 202 -4,7 C -2,9 C 10,0 km/h (2 Bft)
04.03.2015 22:30 -0,6 C 1,1 C 73 % 73 % 1029,7 hPa 0,0 l/m 4,7 km/h (1 Bft) S 180 -4,8 C -2,8 C 4,2 km/h (1 Bft)
04.03.2015 22:35 -0,6 C 1,1 C 73 % 73 % 1030,0 hPa 0,0 l/m 4,8 km/h (1 Bft) S 180 -4,8 C -2,9 C 4,7 km/h (1 Bft)
04.03.2015 22:40 -0,7 C 1,1 C 73 % 73 % 1030,0 hPa 0,0 l/m 4,2 km/h (1 Bft) S-SO 157 -4,9 C -2,6 C 6,1 km/h (2 Bft)
04.03.2015 22:45 -0,7 C 1,1 C 73 % 73 % 1030,0 hPa 0,0 l/m 3,9 km/h (1 Bft) SW 225 -4,9 C -2,6 C 1,8 km/h (1 Bft)
04.03.2015 22:50 -0,7 C 1,1 C 73 % 73 % 1030,0 hPa 0,0 l/m 3,2 km/h (1 Bft) W-SW 247 -4,9 C -2,1 C 5,3 km/h (1 Bft)
04.03.2015 22:55 -0,7 C 1,1 C 73 % 73 % 1030,2 hPa 0,0 l/m 2,7 km/h (1 Bft) SW 225 -4,9 C -1,8 C 2,4 km/h (1 Bft)
04.03.2015 23:00 -0,8 C 1,1 C 73 % 73 % 1030,2 hPa 0,0 l/m 2,9 km/h (1 Bft) SW 225 -5,0 C -2,0 C 5,6 km/h (1 Bft)
04.03.2015 23:05 -0,8 C 1,1 C 74 % 74 % 1030,2 hPa 0,0 l/m 3,4 km/h (1 Bft) SW 225 -4,8 C -2,3 C 3,2 km/h (1 Bft)
04.03.2015 23:10 -0,7 C 1,1 C 74 % 74 % 1030,2 hPa 0,0 l/m 4,2 km/h (1 Bft) S-SW 202 -4,7 C -2,9 C 5,6 km/h (1 Bft)
04.03.2015 23:15 -0,7 C 1,1 C 74 % 74 % 1030,4 hPa 0,0 l/m 4,2 km/h (1 Bft) S-SW 202 -4,7 C -2,9 C 5,6 km/h (1 Bft)
04.03.2015 23:20 -0,7 C 1,1 C 74 % 74 % 1030,4 hPa 0,0 l/m 4,0 km/h (1 Bft) W-SW 247 -4,7 C -2,7 C 4,8 km/h (1 Bft)
04.03.2015 23:25 -0,7 C 1,1 C 73 % 73 % 1030,4 hPa 0,0 l/m 3,7 km/h (1 Bft) SW 225 -4,9 C -2,4 C 5,5 km/h (1 Bft)
04.03.2015 23:30 -0,7 C 1,1 C 74 % 74 % 1030,4 hPa 0,0 l/m 3,7 km/h (1 Bft) S 180 -4,7 C -2,4 C 4,5 km/h (1 Bft)
04.03.2015 23:35 -0,7 C 1,1 C 74 % 74 % 1030,5 hPa 0,0 l/m 3,9 km/h (1 Bft) SW 225 -4,7 C -2,6 C 4,3 km/h (1 Bft)
04.03.2015 23:40 -0,7 C 1,1 C 74 % 74 % 1030,5 hPa 0,0 l/m 3,7 km/h (1 Bft) W-SW 247 -4,7 C -2,6 C 3,1 km/h (1 Bft)
04.03.2015 23:45 -0,8 C 1,1 C 74 % 74 % 1030,5 hPa 0,0 l/m 3,1 km/h (1 Bft) SW 225 -4,8 C -2,2 C 4,2 km/h (1 Bft)
04.03.2015 23:50 -0,9 C 1,1 C 74 % 74 % 1030,5 hPa 0,0 l/m 3,2 km/h (1 Bft) SW 225 -4,9 C -2,4 C 4,3 km/h (1 Bft)
04.03.2015 23:55 -0,9 C 1,1 C 74 % 74 % 1030,3 hPa 0,0 l/m 3,7 km/h (1 Bft) S 180 -4,9 C -2,7 C 6,0 km/h (2 Bft)
_ Min-Zeit 19:35 19:50 01:20 01:20 03:50 - 20:45 - - 19:35 04:30 20:50
Minimum _ -2,6 C 1,0 C 57 % 57 % 1022,2 hPa - 0,0 km/h (0 Bft) - - -6,2 C -7,0 C 0,0 km/h (0 Bft)
_ Max-Zeit 14:15 08:55 07:05 07:05 23:50 23:55 04:30 - - 10:30 12:05 04:10
Maximum _ 5,0 C 1,2 C 85 % 85 % 1030,5 hPa 0,0 l/m 11,3 km/h
W-SW (2 Bft)
- - -1,2 C 6,8 C 23,5 km/h
W (4 Bft)
Durchschnitt _ 1,6 C 1,1 C 70 % 70 % 1026,5 hPa #0,0 l/m 3,7 km/h (1 Bft) W - -3,4 C 0,7 C 4,8 km/h (1 Bft)